Time;durP1;ratioP1;P1;durP2;ratioP2;P2;SDS_P1;SDS_P2;PMS_P1;PMS_P2;Temp;Humidity;BMP_temperature;BMP_pressure;BME280_temperature;BME280_humidity;BME280_pressure;Samples;Min_cycle;Max_cycle;Signal;HPM_P1;HPM_P2
2021/10/13 00:00:23;;;;;;;2.00;1.90;;;;;16.90;98685.00;;;;5057485;28;20184;-86
2021/10/13 00:02:49;;;;;;;3.23;1.80;;;;;16.80;98683.00;;;;5057447;28;20200;-86
2021/10/13 00:05:16;;;;;;;1.90;1.80;;;;;16.80;98685.00;;;;5057740;28;20299;-86
2021/10/13 00:07:43;;;;;;;1.70;1.60;;;;;16.80;98684.00;;;;5057359;28;20617;-86
2021/10/13 00:10:09;;;;;;;1.73;1.63;;;;;16.80;98677.00;;;;5073865;28;20219;-86
2021/10/13 00:12:36;;;;;;;1.90;1.80;;;;;16.80;98684.00;;;;5074950;28;20197;-86
2021/10/13 00:15:05;;;;;;;1.77;1.67;;;;;16.80;98692.00;;;;5040861;28;20199;-86
2021/10/13 00:17:32;;;;;;;2.10;2.00;;;;;16.80;98688.00;;;;5074933;28;20196;-86
2021/10/13 00:19:58;;;;;;;1.90;1.80;;;;;16.80;98685.00;;;;5040820;28;20189;-86
2021/10/13 00:22:25;;;;;;;1.90;1.80;;;;;16.80;98688.00;;;;5040783;28;20203;-86
2021/10/13 00:24:51;;;;;;;1.90;1.80;;;;;16.70;98698.00;;;;5056586;28;20254;-86
2021/10/13 00:27:18;;;;;;;1.60;1.50;;;;;16.80;98698.00;;;;5072976;28;20204;-86
2021/10/13 00:29:44;;;;;;;1.70;1.60;;;;;16.70;98704.00;;;;5074118;28;20213;-86
2021/10/13 00:32:11;;;;;;;1.70;1.60;;;;;16.70;98706.00;;;;5077488;28;20518;-86
2021/10/13 00:34:37;;;;;;;1.60;1.50;;;;;16.70;98691.00;;;;5043325;28;20196;-86
2021/10/13 00:37:04;;;;;;;1.80;1.70;;;;;16.70;98699.00;;;;5059842;28;20199;-86
2021/10/13 00:39:31;;;;;;;1.80;1.70;;;;;16.70;98711.00;;;;5059778;28;20722;-86
2021/10/13 00:41:57;;;;;;;1.70;1.60;;;;;16.70;98711.00;;;;5043205;28;20614;-86
2021/10/13 00:44:24;;;;;;;1.80;1.70;;;;;16.70;98712.00;;;;5059725;28;20198;-86
2021/10/13 00:46:50;;;;;;;1.50;1.40;;;;;16.70;98714.00;;;;5043241;28;20250;-86
2021/10/13 00:49:17;;;;;;;1.97;1.87;;;;;16.70;98711.00;;;;5077243;28;20194;-85
2021/10/13 00:51:44;;;;;;;1.90;1.80;;;;;16.60;98714.00;;;;5059586;28;20265;-86
2021/10/13 00:54:10;;;;;;;1.93;1.83;;;;;16.60;98721.00;;;;5059984;28;20192;-86
2021/10/13 00:56:37;;;;;;;1.60;1.50;;;;;16.60;98710.00;;;;5042947;28;20321;-86
2021/10/13 00:59:03;;;;;;;1.60;1.50;;;;;16.60;98720.00;;;;5059544;28;20191;-86
2021/10/13 01:01:47;;;;;;;1.67;1.57;;;;;16.60;98736.00;;;;5059412;28;20216;-86
2021/10/13 01:04:26;;;;;;;1.70;1.60;;;;;16.60;98740.00;;;;5059697;28;20260;-86
2021/10/13 01:07:03;;;;;;;2.47;1.53;;;;;16.60;98736.00;;;;5076154;28;20192;-86
2021/10/13 01:09:38;;;;;;;1.80;1.70;;;;;16.60;98742.00;;;;5077170;28;20192;-86
2021/10/13 01:13:07;;;;;;;1.70;1.60;;;;;16.60;98742.00;;;;5059771;28;20192;-86
2021/10/13 01:15:39;;;;;;;1.80;1.70;;;;;16.60;98741.00;;;;5054989;28;20207;-86
2021/10/13 01:18:13;;;;;;;2.50;1.60;;;;;16.60;98743.00;;;;5076829;28;20192;-86
2021/10/13 01:21:05;;;;;;;1.73;1.63;;;;;16.60;98755.00;;;;5076031;28;20249;-87
2021/10/13 01:23:53;;;;;;;1.90;1.60;;;;;16.60;98750.00;;;;5039142;28;1068913;-86
2021/10/13 01:26:47;;;;;;;2.13;1.67;;;;;16.60;98759.00;;;;5076993;28;20189;-86
2021/10/13 01:29:19;;;;;;;1.57;1.47;;;;;16.50;98751.00;;;;5060146;28;20249;-87
2021/10/13 01:32:17;;;;;;;1.70;1.60;;;;;16.50;98758.00;;;;5060265;28;20240;-87
2021/10/13 01:34:48;;;;;;;2.27;1.50;;;;;16.50;98753.00;;;;5048715;28;20205;-87
2021/10/13 01:37:19;;;;;;;1.40;1.40;;;;;16.50;98755.00;;;;5078007;28;20239;-87
2021/10/13 01:39:50;;;;;;;1.53;1.43;;;;;16.50;98755.00;;;;5077652;28;20179;-87
2021/10/13 01:42:18;;;;;;;1.60;1.50;;;;;16.50;98746.00;;;;5043103;28;20192;-87
2021/10/13 01:44:51;;;;;;;1.47;1.37;;;;;16.50;98748.00;;;;5059847;28;20196;-87
2021/10/13 01:47:20;;;;;;;1.60;1.50;;;;;16.50;98759.00;;;;5043836;28;20256;-87
2021/10/13 01:49:49;;;;;;;1.73;1.63;;;;;16.50;98747.00;;;;5059690;28;20219;-87
2021/10/13 01:52:18;;;;;;;1.60;1.50;;;;;16.50;98754.00;;;;5059923;28;20197;-87
2021/10/13 01:54:45;;;;;;;2.00;1.90;;;;;16.50;98749.00;;;;5059711;28;20199;-86
2021/10/13 01:57:12;;;;;;;1.60;1.30;;;;;16.40;98751.00;;;;5060139;28;20192;-86
2021/10/13 01:59:41;;;;;;;1.50;1.40;;;;;16.40;98755.00;;;;5059990;28;20203;-86
2021/10/13 02:02:08;;;;;;;1.57;1.47;;;;;16.40;98749.00;;;;5043573;28;20266;-86
2021/10/13 02:04:43;;;;;;;1.60;1.50;;;;;16.40;98757.00;;;;5077136;28;20330;-87
2021/10/13 02:07:11;;;;;;;1.47;1.37;;;;;16.40;98753.00;;;;5059831;28;20176;-86
2021/10/13 02:09:41;;;;;;;1.63;1.53;;;;;16.40;98758.00;;;;5059380;28;20200;-87
2021/10/13 02:12:09;;;;;;;1.60;1.50;;;;;16.40;98761.00;;;;5042837;28;20505;-87
2021/10/13 02:14:40;;;;;;;1.80;1.50;;;;;16.40;98763.00;;;;5059247;28;20195;-86
2021/10/13 02:17:08;;;;;;;1.37;1.30;;;;;16.40;98767.00;;;;5059236;28;20546;-87
2021/10/13 02:19:37;;;;;;;2.43;1.57;;;;;16.40;98751.00;;;;5059154;28;20622;-86
2021/10/13 02:22:04;;;;;;;1.83;1.70;;;;;16.40;98751.00;;;;5076836;28;20192;-86
2021/10/13 02:24:38;;;;;;;1.60;1.50;;;;;16.40;98766.00;;;;5059217;28;20206;-87
2021/10/13 02:27:09;;;;;;;1.37;1.27;;;;;16.30;98757.00;;;;5059477;28;20192;-87
2021/10/13 02:29:37;;;;;;;1.60;1.50;;;;;16.30;98762.00;;;;5076495;28;20185;-87
2021/10/13 02:32:06;;;;;;;1.60;1.50;;;;;16.30;98765.00;;;;5042320;28;20204;-86
2021/10/13 02:34:33;;;;;;;1.37;1.30;;;;;16.30;98761.00;;;;5042316;28;20200;-86
2021/10/13 02:36:59;;;;;;;1.30;1.30;;;;;16.30;98760.00;;;;5042371;28;20205;-87
2021/10/13 02:39:26;;;;;;;1.27;1.27;;;;;16.30;98760.00;;;;5058656;28;20192;-86
2021/10/13 02:41:53;;;;;;;1.37;1.37;;;;;16.30;98771.00;;;;5076660;28;20191;-87
2021/10/13 02:44:19;;;;;;;1.50;1.40;;;;;16.30;98771.00;;;;5075295;28;20189;-87
2021/10/13 02:46:50;;;;;;;1.60;1.50;;;;;16.30;98764.00;;;;5058941;28;20211;-86
2021/10/13 02:49:37;;;;;;;1.40;1.30;;;;;16.30;98773.00;;;;5058644;28;20185;-87
2021/10/13 02:52:41;;;;;;;1.30;1.20;;;;;16.30;98773.00;;;;5058328;28;20179;-87
2021/10/13 02:55:17;;;;;;;1.20;1.20;;;;;16.20;98767.00;;;;5075179;28;20260;-86
2021/10/13 02:58:01;;;;;;;1.37;1.27;;;;;16.30;98772.00;;;;5058465;28;20191;-87
2021/10/13 03:00:32;;;;;;;1.40;1.30;;;;;16.20;98778.00;;;;5075121;28;20658;-87
2021/10/13 03:03:12;;;;;;;1.13;1.13;;;;;16.20;98772.00;;;;5058497;28;20248;-87
2021/10/13 03:05:41;;;;;;;1.30;1.30;;;;;16.20;98774.00;;;;5058899;28;20182;-87
2021/10/13 03:08:11;;;;;;;1.30;1.30;;;;;16.20;98773.00;;;;5058285;28;20197;-87
2021/10/13 03:10:40;;;;;;;1.50;1.40;;;;;16.20;98769.00;;;;5074814;28;20215;-87
2021/10/13 03:13:07;;;;;;;1.40;1.30;;;;;16.20;98774.00;;;;5058497;28;20241;-87
2021/10/13 03:15:34;;;;;;;1.50;1.40;;;;;16.20;98783.00;;;;5058277;28;20248;-87
2021/10/13 03:18:03;;;;;;;1.27;1.27;;;;;16.20;98783.00;;;;5075695;28;20518;-87
2021/10/13 03:20:30;;;;;;;1.50;1.40;;;;;16.20;98783.00;;;;5074735;28;20246;-87
2021/10/13 03:23:00;;;;;;;1.50;1.40;;;;;16.20;98785.00;;;;5058119;28;20530;-87
2021/10/13 03:25:29;;;;;;;1.40;1.30;;;;;16.20;98782.00;;;;5074650;28;20206;-87
2021/10/13 03:27:56;;;;;;;1.30;1.20;;;;;16.20;98786.00;;;;5057796;28;20195;-87
2021/10/13 03:30:23;;;;;;;1.20;1.07;;;;;16.20;98793.00;;;;5074392;28;20248;-87
2021/10/13 03:32:50;;;;;;;1.33;1.33;;;;;16.20;98788.00;;;;5057998;28;20198;-87
2021/10/13 03:35:25;;;;;;;1.13;1.13;;;;;16.20;98794.00;;;;5075409;28;20208;-87
2021/10/13 03:37:54;;;;;;;1.40;1.30;;;;;16.20;98787.00;;;;5059921;28;20248;-87
2021/10/13 03:40:22;;;;;;;1.27;1.23;;;;;16.20;98804.00;;;;5057803;28;20195;-87
2021/10/13 03:42:48;;;;;;;1.13;1.10;;;;;16.20;98813.00;;;;5074310;28;20199;-87
2021/10/13 03:45:17;;;;;;;1.10;1.10;;;;;16.20;98813.00;;;;5041108;28;20210;-87
2021/10/13 03:47:44;;;;;;;1.23;1.20;;;;;16.20;98823.00;;;;5057679;28;20640;-87
2021/10/13 03:50:12;;;;;;;1.40;1.30;;;;;16.20;98833.00;;;;5074126;28;20224;-87
2021/10/13 03:52:40;;;;;;;0.93;0.93;;;;;16.20;98835.00;;;;5073998;28;20204;-87
2021/10/13 03:55:08;;;;;;;1.20;1.20;;;;;16.20;98836.00;;;;5057426;28;20277;-87
2021/10/13 03:57:35;;;;;;;0.93;0.93;;;;;16.20;98839.00;;;;5057545;28;20249;-87
2021/10/13 04:00:07;;;;;;;1.10;1.10;;;;;16.20;98835.00;;;;5075042;28;20185;-87
2021/10/13 04:02:34;;;;;;;1.10;1.10;;;;;16.10;98843.00;;;;5074116;28;20210;-87
2021/10/13 04:05:01;;;;;;;1.17;1.17;;;;;16.10;98842.00;;;;5074903;28;20188;-87
2021/10/13 04:07:28;;;;;;;1.30;1.20;;;;;16.10;98846.00;;;;5074986;28;20189;-87
2021/10/13 04:09:54;;;;;;;1.43;1.33;;;;;16.10;98839.00;;;;5057511;28;20195;-87
2021/10/13 04:12:21;;;;;;;1.30;1.20;;;;;16.10;98839.00;;;;5057287;28;20284;-87
2021/10/13 04:14:49;;;;;;;1.13;1.13;;;;;16.10;98852.00;;;;5057531;28;20192;-87
2021/10/13 04:17:16;;;;;;;1.30;1.20;;;;;16.10;98855.00;;;;5058449;28;20198;-87
2021/10/13 04:19:44;;;;;;;1.00;1.00;;;;;16.10;98853.00;;;;5057205;28;20207;-87
2021/10/13 04:22:11;;;;;;;1.30;1.30;;;;;16.10;98854.00;;;;5040341;28;20188;-87
2021/10/13 04:24:39;;;;;;;1.20;1.20;;;;;16.00;98844.00;;;;5057166;28;20295;-87
2021/10/13 04:27:05;;;;;;;1.20;1.10;;;;;16.10;98849.00;;;;5057115;28;20206;-87
2021/10/13 04:29:33;;;;;;;1.13;1.13;;;;;16.10;98864.00;;;;5040631;28;20227;-87
2021/10/13 04:32:00;;;;;;;1.30;1.20;;;;;16.10;98856.00;;;;5057060;28;20215;-87
2021/10/13 04:34:26;;;;;;;1.10;1.10;;;;;16.10;98861.00;;;;5057061;28;20624;-87
2021/10/13 04:36:54;;;;;;;1.10;1.10;;;;;16.00;98859.00;;;;5041121;28;20597;-87
2021/10/13 04:39:21;;;;;;;1.03;1.03;;;;;16.00;98864.00;;;;5057016;28;20205;-87
2021/10/13 04:41:47;;;;;;;1.17;1.17;;;;;16.00;98861.00;;;;5074663;28;20188;-87
2021/10/13 04:44:14;;;;;;;1.40;1.30;;;;;16.00;98856.00;;;;5057211;28;20595;-87
2021/10/13 04:46:41;;;;;;;1.43;1.33;;;;;16.00;98873.00;;;;5057191;28;20700;-87
2021/10/13 04:49:08;;;;;;;1.37;1.27;;;;;16.00;98863.00;;;;5056921;28;20199;-87
2021/10/13 04:51:35;;;;;;;1.20;1.20;;;;;16.00;98859.00;;;;5056762;28;20216;-87
2021/10/13 04:54:02;;;;;;;1.30;1.30;;;;;16.00;98878.00;;;;5040440;28;20302;-87
2021/10/13 04:56:29;;;;;;;1.30;1.20;;;;;16.00;98860.00;;;;5073510;28;20223;-87
2021/10/13 04:58:55;;;;;;;1.30;1.20;;;;;16.00;98858.00;;;;5057137;28;20195;-87
2021/10/13 05:01:22;;;;;;;1.00;1.00;;;;;16.00;98860.00;;;;5057043;28;20203;-87
2021/10/13 05:03:49;;;;;;;1.00;1.00;;;;;16.00;98874.00;;;;5040479;28;20524;-87
2021/10/13 05:06:15;;;;;;;1.10;1.10;;;;;16.00;98872.00;;;;5073619;28;20211;-87
2021/10/13 05:08:42;;;;;;;1.30;1.20;;;;;16.00;98868.00;;;;5056784;28;20195;-87
2021/10/13 05:11:08;;;;;;;1.00;1.00;;;;;16.10;98874.00;;;;5040287;28;20225;-87
2021/10/13 05:13:35;;;;;;;1.10;1.10;;;;;16.10;98884.00;;;;5074287;28;20591;-87
2021/10/13 05:16:02;;;;;;;1.07;1.07;;;;;16.10;98881.00;;;;5074089;28;20201;-87
2021/10/13 05:18:29;;;;;;;1.07;1.07;;;;;16.10;98886.00;;;;5060404;28;20193;-87
2021/10/13 05:20:55;;;;;;;1.30;1.20;;;;;16.10;98886.00;;;;5077000;28;20651;-87
2021/10/13 05:23:22;;;;;;;1.10;1.10;;;;;16.10;98889.00;;;;5060123;28;20198;-87
2021/10/13 05:25:48;;;;;;;1.00;1.00;;;;;16.10;98892.00;;;;5076874;28;20206;-87
2021/10/13 05:28:15;;;;;;;1.00;1.00;;;;;16.10;98913.00;;;;5060709;28;20188;-87
2021/10/13 05:30:41;;;;;;;1.20;1.20;;;;;16.10;98908.00;;;;5060573;28;20222;-87
2021/10/13 05:33:08;;;;;;;1.30;1.20;;;;;16.10;98905.00;;;;5076870;28;20227;-87
2021/10/13 05:35:35;;;;;;;1.10;1.10;;;;;16.10;98913.00;;;;5076742;28;20214;-87
2021/10/13 05:38:02;;;;;;;1.17;1.17;;;;;16.10;98899.00;;;;5059909;28;20673;-87
2021/10/13 05:40:28;;;;;;;1.40;1.30;;;;;16.10;98900.00;;;;5060005;28;20195;-87
2021/10/13 05:42:55;;;;;;;1.03;1.03;;;;;16.10;98903.00;;;;5077790;28;20196;-87
2021/10/13 05:45:21;;;;;;;1.10;1.00;;;;;16.20;98915.00;;;;5060032;28;20198;-87
2021/10/13 05:47:48;;;;;;;1.10;1.10;;;;;16.20;98920.00;;;;5060834;28;20187;-87
2021/10/13 05:50:15;;;;;;;1.13;1.10;;;;;16.20;98912.00;;;;5060434;28;20199;-87
2021/10/13 05:52:41;;;;;;;1.17;1.07;;;;;16.30;98925.00;;;;5043218;28;20233;-87
2021/10/13 05:55:08;;;;;;;1.10;1.10;;;;;16.30;98923.00;;;;5059819;28;20196;-87
2021/10/13 05:57:36;;;;;;;1.27;1.17;;;;;16.40;98922.00;;;;5077276;28;20201;-87
2021/10/13 06:00:05;;;;;;;1.00;1.00;;;;;16.40;98928.00;;;;5077151;28;20629;-87
2021/10/13 06:02:35;;;;;;;0.90;0.90;;;;;16.40;98920.00;;;;5059589;28;20199;-87
2021/10/13 06:05:03;;;;;;;1.70;1.27;;;;;16.40;98936.00;;;;5077154;28;20187;-87
2021/10/13 06:07:32;;;;;;;1.00;1.00;;;;;16.40;98940.00;;;;5059568;28;20507;-87
2021/10/13 06:09:58;;;;;;;1.23;1.13;;;;;16.40;98932.00;;;;5077022;28;20191;-87
2021/10/13 06:12:25;;;;;;;0.90;0.90;;;;;16.40;98933.00;;;;5075961;28;20645;-87
2021/10/13 06:14:51;;;;;;;1.20;1.10;;;;;16.40;98956.00;;;;5076053;28;20208;-87
2021/10/13 06:17:20;;;;;;;1.00;1.00;;;;;16.40;98944.00;;;;5076914;28;20195;-87
2021/10/13 06:19:47;;;;;;;1.27;1.17;;;;;16.40;98954.00;;;;5076765;28;20191;-86
2021/10/13 06:22:14;;;;;;;1.17;1.10;;;;;16.50;98948.00;;;;5075787;28;20725;-87
2021/10/13 06:24:41;;;;;;;1.07;1.03;;;;;16.50;98946.00;;;;5076819;28;20193;-87
2021/10/13 06:27:08;;;;;;;1.30;1.20;;;;;16.50;98943.00;;;;5058498;28;20210;-87
2021/10/13 06:29:34;;;;;;;3.33;1.30;;;;;16.50;98953.00;;;;5058690;28;20200;-86
2021/10/13 06:32:01;;;;;;;1.20;1.10;;;;;16.60;98960.00;;;;5076189;28;20262;-87
2021/10/13 06:34:28;;;;;;;1.77;1.20;;;;;16.60;98959.00;;;;5059094;28;20640;-86
2021/10/13 06:36:54;;;;;;;1.50;1.00;;;;;16.60;98965.00;;;;5058881;28;20220;-87
2021/10/13 06:39:21;;;;;;;1.37;1.27;;;;;16.70;98961.00;;;;5059126;28;20187;-87
2021/10/13 06:41:49;;;;;;;1.43;1.03;;;;;16.70;98949.00;;;;5075581;28;20191;-87
2021/10/13 06:44:17;;;;;;;1.57;1.00;;;;;16.70;98955.00;;;;5042272;28;20199;-88
2021/10/13 06:46:44;;;;;;;1.40;1.30;;;;;16.80;98967.00;;;;5059033;28;20249;-87
2021/10/13 06:49:12;;;;;;;1.33;1.03;;;;;16.80;98967.00;;;;5058584;28;20534;-87
2021/10/13 06:51:39;;;;;;;1.30;1.20;;;;;16.80;98972.00;;;;5058901;28;20311;-87
2021/10/13 06:54:05;;;;;;;1.27;1.00;;;;;16.80;98978.00;;;;5042833;28;20224;-87
2021/10/13 06:56:32;;;;;;;0.93;0.93;;;;;16.80;98966.00;;;;5043390;28;20238;-87
2021/10/13 06:58:58;;;;;;;1.47;1.13;;;;;16.70;98977.00;;;;5059634;28;20199;-87
2021/10/13 07:01:25;;;;;;;1.00;1.00;;;;;16.70;98972.00;;;;5076001;28;20514;-87
2021/10/13 07:03:52;;;;;;;1.20;1.10;;;;;16.70;98987.00;;;;5075945;28;20184;-87
2021/10/13 07:06:19;;;;;;;1.77;1.20;;;;;16.70;98991.00;;;;5058571;28;20663;-87
2021/10/13 07:08:46;;;;;;;1.20;1.10;;;;;16.70;98975.00;;;;5074962;28;20196;-87
2021/10/13 07:11:13;;;;;;;1.20;1.10;;;;;16.70;98999.00;;;;5058151;28;20224;-87
2021/10/13 07:13:40;;;;;;;1.40;1.30;;;;;16.70;98980.00;;;;5042235;28;20522;-87
2021/10/13 07:16:07;;;;;;;0.97;0.97;;;;;16.70;98981.00;;;;5058912;28;20193;-87
2021/10/13 07:18:34;;;;;;;1.10;1.00;;;;;16.80;98996.00;;;;5074654;28;20199;-87
2021/10/13 07:21:01;;;;;;;1.50;1.00;;;;;16.70;98998.00;;;;5058045;28;20195;-87
2021/10/13 07:23:28;;;;;;;1.03;1.03;;;;;16.80;99005.00;;;;5074509;28;20228;-87
2021/10/13 07:25:54;;;;;;;1.20;1.20;;;;;16.80;98991.00;;;;5057920;28;20299;-87
2021/10/13 07:28:22;;;;;;;1.00;1.00;;;;;16.80;99008.00;;;;5041434;28;20710;-87
2021/10/13 07:30:49;;;;;;;1.10;1.10;;;;;16.80;99011.00;;;;5057798;28;20193;-87
2021/10/13 07:33:16;;;;;;;1.10;1.10;;;;;16.80;99018.00;;;;5074522;28;20513;-87
2021/10/13 07:35:43;;;;;;;2.00;1.17;;;;;16.70;99033.00;;;;5057816;28;20204;-87
2021/10/13 07:38:16;;;;;;;1.10;1.00;;;;;16.80;99016.00;;;;5074157;28;20279;-87
2021/10/13 07:40:45;;;;;;;1.10;1.10;;;;;16.80;99019.00;;;;5057713;28;20685;-87
2021/10/13 07:43:14;;;;;;;1.13;1.03;;;;;16.80;99042.00;;;;5074812;28;20189;-87
2021/10/13 07:45:42;;;;;;;1.00;1.00;;;;;16.80;99017.00;;;;5075307;28;20207;-87
2021/10/13 07:48:08;;;;;;;1.10;1.10;;;;;16.80;99024.00;;;;5057478;28;20203;-87
2021/10/13 07:50:35;;;;;;;2.17;1.17;;;;;16.80;99029.00;;;;5058273;28;20199;-87
2021/10/13 07:53:02;;;;;;;0.90;0.90;;;;;16.80;99019.00;;;;5057614;28;20285;-87
2021/10/13 07:55:29;;;;;;;1.10;1.10;;;;;16.80;99029.00;;;;5074196;28;20184;-87
2021/10/13 07:57:55;;;;;;;1.13;1.03;;;;;16.80;99026.00;;;;5057425;28;20195;-87
2021/10/13 08:00:22;;;;;;;0.97;0.97;;;;;16.80;99022.00;;;;5057535;28;20657;-87
2021/10/13 08:02:49;;;;;;;1.20;1.10;;;;;16.80;99025.00;;;;5057796;28;20259;-87
2021/10/13 08:05:17;;;;;;;1.30;1.20;;;;;16.80;99028.00;;;;5074976;28;20184;-87
2021/10/13 08:07:45;;;;;;;1.10;1.10;;;;;16.90;99029.00;;;;5074888;28;20188;-87
2021/10/13 08:10:13;;;;;;;1.00;1.00;;;;;16.80;99014.00;;;;5074816;28;20541;-87
2021/10/13 08:12:40;;;;;;;1.03;1.03;;;;;16.90;99039.00;;;;5057157;28;20215;-87
2021/10/13 08:15:08;;;;;;;1.00;1.00;;;;;16.90;99051.00;;;;5074932;28;20685;-87
2021/10/13 08:17:35;;;;;;;1.83;1.00;;;;;16.90;99034.00;;;;5057934;28;20227;-87
2021/10/13 08:20:03;;;;;;;0.97;0.97;;;;;16.90;99041.00;;;;5074768;28;20192;-87
2021/10/13 08:22:31;;;;;;;1.20;1.10;;;;;16.90;99042.00;;;;5057170;28;20199;-87
2021/10/13 08:24:57;;;;;;;1.17;1.07;;;;;17.00;99059.00;;;;5056944;28;20303;-87
2021/10/13 08:27:24;;;;;;;0.93;0.93;;;;;17.00;99061.00;;;;5040664;28;20203;-87
2021/10/13 08:29:50;;;;;;;1.10;1.10;;;;;17.10;99065.00;;;;5057043;28;20211;-87
2021/10/13 08:32:17;;;;;;;1.20;1.10;;;;;17.10;99038.00;;;;5056946;28;20223;-87
2021/10/13 08:34:43;;;;;;;1.43;1.33;;;;;17.10;99055.00;;;;5056845;28;20194;-87
2021/10/13 08:37:10;;;;;;;1.20;1.10;;;;;17.10;99055.00;;;;5057252;28;20216;-87
2021/10/13 08:39:36;;;;;;;1.10;1.00;;;;;17.10;99062.00;;;;5056980;28;20199;-87
2021/10/13 08:42:03;;;;;;;1.30;1.20;;;;;17.20;99068.00;;;;5074560;28;20245;-87
2021/10/13 08:44:33;;;;;;;1.00;1.00;;;;;17.20;99064.00;;;;5074520;28;20698;-87
2021/10/13 08:47:00;;;;;;;1.27;1.17;;;;;17.20;99065.00;;;;5057002;28;20250;-87
2021/10/13 08:49:26;;;;;;;1.50;1.40;;;;;17.20;99055.00;;;;5057137;28;20190;-87
2021/10/13 08:51:53;;;;;;;1.13;1.13;;;;;17.20;99051.00;;;;5059261;28;20197;-87
2021/10/13 08:54:20;;;;;;;1.00;1.00;;;;;17.20;99057.00;;;;5060716;28;20206;-87
2021/10/13 08:56:46;;;;;;;1.03;0.97;;;;;17.30;99063.00;;;;5060871;28;20203;-87
2021/10/13 08:59:42;;;;;;;1.67;1.30;;;;;17.30;99068.00;;;;5077359;28;20204;-86
2021/10/13 09:02:12;;;;;;;1.07;1.07;;;;;17.30;99059.00;;;;5077346;28;20199;-86
2021/10/13 09:05:15;;;;;;;1.03;1.00;;;;;17.30;99068.00;;;;5077209;28;20200;-86
2021/10/13 09:07:53;;;;;;;1.57;1.00;;;;;17.30;99070.00;;;;5078151;28;20214;-86
2021/10/13 09:10:31;;;;;;;1.20;1.00;;;;;17.30;99070.00;;;;5060630;28;20219;-86
2021/10/13 09:12:59;;;;;;;1.13;0.93;;;;;17.30;99079.00;;;;5060376;28;20291;-86
2021/10/13 09:15:28;;;;;;;1.40;1.30;;;;;17.20;99078.00;;;;5060347;28;20196;-87
2021/10/13 09:18:06;;;;;;;1.43;1.13;;;;;17.20;99082.00;;;;5077406;28;20638;-87
2021/10/13 09:20:40;;;;;;;0.90;0.90;;;;;17.10;99072.00;;;;5044147;28;20530;-87
2021/10/13 09:23:15;;;;;;;1.27;1.20;;;;;17.10;99082.00;;;;5060153;28;20659;-87
2021/10/13 09:25:42;;;;;;;0.90;0.90;;;;;17.10;99081.00;;;;5076988;28;20185;-87
2021/10/13 09:28:09;;;;;;;1.10;1.10;;;;;17.00;99078.00;;;;5060562;28;20187;-87
2021/10/13 09:30:40;;;;;;;1.13;1.03;;;;;17.00;99079.00;;;;5060097;28;20508;-87
2021/10/13 09:33:16;;;;;;;1.43;1.07;;;;;16.90;99083.00;;;;5077371;28;20208;-87
2021/10/13 09:35:44;;;;;;;1.07;1.00;;;;;16.90;99084.00;;;;5076561;28;20196;-88
2021/10/13 09:38:24;;;;;;;0.90;0.90;;;;;16.90;99092.00;;;;5076492;28;20328;-88
2021/10/13 09:41:00;;;;;;;0.93;0.90;;;;;16.80;99089.00;;;;5060391;28;20283;-88
2021/10/13 09:43:37;;;;;;;1.40;1.30;;;;;16.80;99085.00;;;;5076509;28;20200;-87
2021/10/13 09:46:11;;;;;;;1.10;1.10;;;;;16.80;99079.00;;;;5059840;28;20187;-87
2021/10/13 09:48:42;;;;;;;2.37;1.10;;;;;16.80;99080.00;;;;5043698;28;20189;-86
2021/10/13 09:51:16;;;;;;;1.17;1.10;;;;;16.80;99076.00;;;;5059668;28;20196;-87
2021/10/13 09:53:44;;;;;;;1.00;1.00;;;;;16.80;99074.00;;;;5059520;28;20240;-87
2021/10/13 09:56:35;;;;;;;1.10;1.10;;;;;16.80;99074.00;;;;5043057;28;20193;-88
2021/10/13 09:59:15;;;;;;;0.93;0.93;;;;;16.80;99073.00;;;;5077428;28;20190;-88
2021/10/13 10:02:03;;;;;;;2.07;0.93;;;;;16.70;99071.00;;;;5059353;28;20246;-88
2021/10/13 10:04:31;;;;;;;1.27;1.13;;;;;16.70;99074.00;;;;5059395;28;20188;-88
2021/10/13 10:06:59;;;;;;;1.40;1.20;;;;;16.70;99087.00;;;;5042839;28;20192;-88
2021/10/13 10:09:26;;;;;;;1.20;1.10;;;;;16.70;99088.00;;;;5042874;28;20200;-88
2021/10/13 10:12:07;;;;;;;1.10;1.00;;;;;16.70;99083.00;;;;5059386;28;20217;-89
2021/10/13 10:14:46;;;;;;;2.37;1.20;;;;;16.80;99081.00;;;;5077049;28;20341;-87
2021/10/13 10:17:33;;;;;;;1.87;1.40;;;;;16.80;99083.00;;;;5060315;28;20195;-89
2021/10/13 10:20:00;;;;;;;2.93;1.77;;;;;16.80;99085.00;;;;5076677;28;20196;-89
2021/10/13 10:22:26;;;;;;;1.57;1.47;;;;;16.70;99089.00;;;;5059222;28;20206;-86
2021/10/13 10:24:55;;;;;;;2.47;2.10;;;;;16.70;99086.00;;;;5059063;28;20206;-86
2021/10/13 10:27:34;;;;;;;3.73;2.90;;;;;16.60;99093.00;;;;5075500;28;20197;-86
2021/10/13 10:30:07;;;;;;;3.63;3.20;;;;;16.50;99080.00;;;;5042388;28;20188;-86
2021/10/13 10:32:35;;;;;;;5.43;3.57;;;;;16.50;99084.00;;;;5058766;28;20212;-86
2021/10/13 10:35:04;;;;;;;3.67;3.17;;;;;16.40;99084.00;;;;5075404;28;20201;-86
2021/10/13 10:37:45;;;;;;;5.23;3.57;;;;;16.40;99080.00;;;;5075526;28;20192;-85
2021/10/13 10:40:29;;;;;;;5.67;2.87;;;;;16.30;99081.00;;;;5075528;28;20174;-89
2021/10/13 10:43:04;;;;;;;3.43;3.00;;;;;16.30;99072.00;;;;5042291;28;20195;-89
2021/10/13 10:45:33;;;;;;;3.57;2.80;;;;;16.30;99067.00;;;;5058928;28;20187;-88
2021/10/13 10:47:59;;;;;;;4.40;2.90;;;;;16.40;99069.00;;;;5042416;28;20200;-88
2021/10/13 10:50:36;;;;;;;3.87;2.83;;;;;16.40;99069.00;;;;5075159;28;20196;-89
2021/10/13 10:53:32;;;;;;;4.27;2.90;;;;;16.50;99084.00;;;;5058465;28;20219;-90
2021/10/13 10:56:27;;;;;;;5.87;3.07;;;;;16.50;99080.00;;;;5058690;28;20197;-90
2021/10/13 10:59:11;;;;;;;3.10;2.80;;;;;16.60;99077.00;;;;5058433;28;20207;-88
2021/10/13 11:01:40;;;;;;;3.73;3.23;;;;;16.60;99074.00;;;;5041802;28;20249;-88
2021/10/13 11:04:08;;;;;;;3.80;2.83;;;;;16.70;99075.00;;;;5058382;28;20204;-89
2021/10/13 11:06:37;;;;;;;5.47;2.93;;;;;16.70;99074.00;;;;5075865;28;20188;-88
2021/10/13 11:09:11;;;;;;;3.43;2.70;;;;;16.80;99077.00;;;;5058227;28;20236;-90
2021/10/13 11:11:48;;;;;;;4.80;2.57;;;;;16.80;99067.00;;;;5058361;28;20539;-89
2021/10/13 11:14:26;;;;;;;3.47;2.90;;;;;16.80;99072.00;;;;5041236;28;20192;-89
2021/10/13 11:16:57;;;;;;;3.20;2.30;;;;;16.80;99065.00;;;;5058712;28;20280;-89
2021/10/13 11:19:28;;;;;;;2.90;2.60;;;;;16.80;99068.00;;;;5058332;28;20197;-89
2021/10/13 11:22:04;;;;;;;2.90;2.60;;;;;16.80;99072.00;;;;5074492;28;20231;-91
2021/10/13 11:24:32;;;;;;;3.07;2.80;;;;;16.90;99072.00;;;;5057794;28;20214;-89
2021/10/13 11:27:00;;;;;;;2.97;2.70;;;;;16.80;99070.00;;;;5074473;28;20195;-91
2021/10/13 11:29:29;;;;;;;2.80;2.60;;;;;16.80;99075.00;;;;5057917;28;20799;-90
2021/10/13 11:32:14;;;;;;;3.37;2.27;;;;;16.80;99075.00;;;;5057535;28;20204;-89
2021/10/13 11:34:44;;;;;;;3.13;2.50;;;;;16.80;99069.00;;;;5057717;28;20219;-90
2021/10/13 11:37:11;;;;;;;3.00;2.67;;;;;16.80;99076.00;;;;5057618;28;20219;-90
2021/10/13 11:39:45;;;;;;;4.60;2.30;;;;;16.80;99075.00;;;;5057516;28;20253;-90
2021/10/13 11:42:15;;;;;;;4.33;2.70;;;;;16.80;99070.00;;;;5057786;28;20191;-90
2021/10/13 11:44:50;;;;;;;2.80;2.50;;;;;16.80;99070.00;;;;5058307;28;20215;-90
2021/10/13 11:47:34;;;;;;;3.03;2.53;;;;;16.80;99069.00;;;;5057414;28;20195;-91
2021/10/13 11:50:08;;;;;;;2.53;2.20;;;;;16.90;99064.00;;;;5057993;28;20553;-91
2021/10/13 11:52:40;;;;;;;2.40;2.20;;;;;16.90;99070.00;;;;5057659;28;20199;-90
2021/10/13 11:55:09;;;;;;;2.97;2.40;;;;;16.90;99049.00;;;;5073997;28;20601;-91
2021/10/13 11:57:38;;;;;;;2.43;2.23;;;;;16.90;99068.00;;;;5074110;28;20195;-91
2021/10/13 12:00:30;;;;;;;2.60;2.40;;;;;16.90;99059.00;;;;5057356;28;20191;-91
2021/10/13 12:03:03;;;;;;;2.37;2.17;;;;;17.00;99072.00;;;;5057507;28;20238;-91
2021/10/13 12:05:43;;;;;;;2.20;2.10;;;;;17.00;99065.00;;;;5058172;28;20190;-91
2021/10/13 12:08:18;;;;;;;2.23;1.90;;;;;17.00;99073.00;;;;5075105;28;20182;-92
2021/10/13 12:10:48;;;;;;;2.20;2.00;;;;;17.00;99072.00;;;;5041915;28;20283;-93
2021/10/13 12:13:37;;;;;;;2.57;2.00;;;;;17.00;99064.00;;;;5058598;28;20211;-91
2021/10/13 12:16:26;;;;;;;2.13;1.90;;;;;16.90;99060.00;;;;5043750;28;20498;-93
2021/10/13 12:18:53;;;;;;;1.97;1.83;;;;;17.00;99057.00;;;;5041116;28;20269;-94
2021/10/13 12:21:22;;;;;;;2.40;2.20;;;;;16.90;99066.00;;;;5042552;28;20643;-92
2021/10/13 12:23:51;;;;;;;2.50;2.13;;;;;16.90;99051.00;;;;5057251;28;20212;-92
2021/10/13 12:26:21;;;;;;;2.43;2.13;;;;;16.90;99038.00;;;;5077725;28;20190;-91
2021/10/13 12:28:52;;;;;;;2.33;2.00;;;;;16.90;99067.00;;;;5061544;28;20188;-91
2021/10/13 12:31:25;;;;;;;2.20;2.00;;;;;16.90;99062.00;;;;5062030;28;20189;-92
2021/10/13 12:33:58;;;;;;;2.00;1.90;;;;;16.90;99061.00;;;;5061812;28;20293;-91